Riversville, Missouri
Current Conditions -  °F | °C
As of 5:54 PM on Monday 20 Oct 2014 (Local Time) from KCOU Reporting Station
Clear Clear  
Wind Chill: 67°   Ceiling: Unl
Heat Index: 67°   Visibility: 10mi
Dew Point: 44°   Wind: 7mph
Humidity: 44%   Direction: 300°WNW
Pressure: 30"   Gusts: NA
Location:  39.1882°N, 91.8924°W
Report Text: KCOU 202254Z 30006KT 10SM CLR 19/07 A3000 RMK AO2 SLP158 T01940067
Loading
Personal Weather Stations






























Interactive Weather Map
Tropical Storm Tracking
New forecast layout! Learn more

10-Day Weather Forecast

Advertisements
Track Severe Weather on mobile